sensor_id;sensor_type;location;lat;lon;timestamp;pressure;altitude;pressure_sealevel;temperature;humidity
69035;BME280;56091;55.756;37.412;2023-03-01T00:00:38;98177.22;;;-6.03;56.93
69035;BME280;56091;55.756;37.412;2023-03-01T00:05:46;98174.31;;;-6.09;57.20
69035;BME280;56091;55.756;37.412;2023-03-01T00:10:47;98166.63;;;-6.10;57.27
69035;BME280;56091;55.756;37.412;2023-03-01T00:15:50;98156.44;;;-6.13;57.42
69035;BME280;56091;55.756;37.412;2023-03-01T00:20:53;98154.88;;;-6.22;57.55
69035;BME280;56091;55.756;37.412;2023-03-01T00:25:54;98155.94;;;-6.32;57.67
69035;BME280;56091;55.756;37.412;2023-03-01T00:30:55;98165.97;;;-6.35;57.94
69035;BME280;56091;55.756;37.412;2023-03-01T00:35:58;98161.19;;;-6.32;58.63
69035;BME280;56091;55.756;37.412;2023-03-01T00:41:06;98145.84;;;-6.43;58.36
69035;BME280;56091;55.756;37.412;2023-03-01T00:46:22;98152.66;;;-6.34;58.34
69035;BME280;56091;55.756;37.412;2023-03-01T00:51:27;98147.28;;;-6.40;58.53
69035;BME280;56091;55.756;37.412;2023-03-01T00:56:28;98118.25;;;-6.62;58.39
69035;BME280;56091;55.756;37.412;2023-03-01T01:01:34;98155.22;;;-6.49;58.68
69035;BME280;56091;55.756;37.412;2023-03-01T01:06:46;98140.97;;;-6.54;58.80
69035;BME280;56091;55.756;37.412;2023-03-01T01:12:12;98140.03;;;-6.61;59.06
69035;BME280;56091;55.756;37.412;2023-03-01T01:18:19;98139.56;;;-6.65;59.57
69035;BME280;56091;55.756;37.412;2023-03-01T01:23:19;98147.13;;;-6.70;59.83
69035;BME280;56091;55.756;37.412;2023-03-01T01:28:20;98143.69;;;-6.71;60.30
69035;BME280;56091;55.756;37.412;2023-03-01T01:33:21;98157.63;;;-6.70;60.29
69035;BME280;56091;55.756;37.412;2023-03-01T01:38:22;98155.53;;;-6.75;60.94
69035;BME280;56091;55.756;37.412;2023-03-01T01:43:27;98151.78;;;-6.80;61.02
69035;BME280;56091;55.756;37.412;2023-03-01T01:48:34;98144.41;;;-6.85;61.27
69035;BME280;56091;55.756;37.412;2023-03-01T01:53:42;98137.00;;;-6.81;61.61
69035;BME280;56091;55.756;37.412;2023-03-01T01:58:49;98141.72;;;-6.69;61.29
69035;BME280;56091;55.756;37.412;2023-03-01T02:03:51;98146.63;;;-6.65;61.52
69035;BME280;56091;55.756;37.412;2023-03-01T02:08:52;98146.25;;;-6.62;61.48
69035;BME280;56091;55.756;37.412;2023-03-01T02:13:54;98144.63;;;-6.63;61.58
69035;BME280;56091;55.756;37.412;2023-03-01T02:18:57;98146.91;;;-6.60;61.65
69035;BME280;56091;55.756;37.412;2023-03-01T02:29:30;98133.84;;;-7.00;62.70
69035;BME280;56091;55.756;37.412;2023-03-01T02:34:32;98171.00;;;-6.96;63.73
69035;BME280;56091;55.756;37.412;2023-03-01T02:39:38;98143.91;;;-7.20;63.87
69035;BME280;56091;55.756;37.412;2023-03-01T02:44:42;98162.56;;;-7.15;64.04
69035;BME280;56091;55.756;37.412;2023-03-01T02:49:46;98156.84;;;-7.18;64.25
69035;BME280;56091;55.756;37.412;2023-03-01T02:55:00;98162.22;;;-7.12;64.70
69035;BME280;56091;55.756;37.412;2023-03-01T03:00:13;98160.09;;;-7.16;64.91
69035;BME280;56091;55.756;37.412;2023-03-01T03:05:23;98173.84;;;-7.14;64.59
69035;BME280;56091;55.756;37.412;2023-03-01T03:10:30;98164.72;;;-7.27;65.19
69035;BME280;56091;55.756;37.412;2023-03-01T03:15:32;98177.50;;;-7.32;65.23
69035;BME280;56091;55.756;37.412;2023-03-01T03:20:36;98158.56;;;-7.50;65.65
69035;BME280;56091;55.756;37.412;2023-03-01T03:25:38;98158.41;;;-7.57;66.15
69035;BME280;56091;55.756;37.412;2023-03-01T03:30:40;98174.09;;;-7.40;66.03
69035;BME280;56091;55.756;37.412;2023-03-01T03:35:45;98183.59;;;-7.48;66.61
69035;BME280;56091;55.756;37.412;2023-03-01T03:40:48;98187.69;;;-7.53;66.36
69035;BME280;56091;55.756;37.412;2023-03-01T03:45:50;98195.91;;;-7.56;66.72
69035;BME280;56091;55.756;37.412;2023-03-01T03:50:55;98177.91;;;-7.68;67.04
69035;BME280;56091;55.756;37.412;2023-03-01T03:55:56;98174.59;;;-7.53;66.74
69035;BME280;56091;55.756;37.412;2023-03-01T04:00:59;98187.03;;;-7.39;66.69
69035;BME280;56091;55.756;37.412;2023-03-01T04:06:02;98192.78;;;-7.43;66.95
69035;BME280;56091;55.756;37.412;2023-03-01T04:11:04;98191.63;;;-7.49;67.30
69035;BME280;56091;55.756;37.412;2023-03-01T04:16:24;98193.75;;;-7.53;66.95
69035;BME280;56091;55.756;37.412;2023-03-01T04:21:25;98192.63;;;-7.58;67.45
69035;BME280;56091;55.756;37.412;2023-03-01T04:26:26;98199.16;;;-7.54;67.53
69035;BME280;56091;55.756;37.412;2023-03-01T04:31:27;98187.72;;;-7.61;67.58
69035;BME280;56091;55.756;37.412;2023-03-01T04:36:29;98204.84;;;-7.26;68.17
69035;BME280;56091;55.756;37.412;2023-03-01T04:41:29;98199.06;;;-7.13;66.87
69035;BME280;56091;55.756;37.412;2023-03-01T04:46:30;98205.66;;;-7.26;66.22
69035;BME280;56091;55.756;37.412;2023-03-01T04:51:31;98210.06;;;-7.18;66.63
69035;BME280;56091;55.756;37.412;2023-03-01T04:56:35;98215.19;;;-7.24;66.50
69035;BME280;56091;55.756;37.412;2023-03-01T05:01:36;98204.66;;;-7.16;66.27
69035;BME280;56091;55.756;37.412;2023-03-01T05:06:37;98223.66;;;-7.14;66.29
69035;BME280;56091;55.756;37.412;2023-03-01T05:11:41;98208.25;;;-7.17;66.44
69035;BME280;56091;55.756;37.412;2023-03-01T05:16:42;98227.28;;;-7.23;66.66
69035;BME280;56091;55.756;37.412;2023-03-01T05:21:43;98231.56;;;-7.22;66.83
69035;BME280;56091;55.756;37.412;2023-03-01T05:27:02;98226.78;;;-7.11;66.87
69035;BME280;56091;55.756;37.412;2023-03-01T05:32:03;98170.66;;;-7.41;66.72
69035;BME280;56091;55.756;37.412;2023-03-01T05:37:04;98244.75;;;-6.91;66.16
69035;BME280;56091;55.756;37.412;2023-03-01T05:42:05;98234.41;;;-6.93;65.40
69035;BME280;56091;55.756;37.412;2023-03-01T05:47:06;98261.03;;;-6.56;64.77
69035;BME280;56091;55.756;37.412;2023-03-01T05:52:07;98254.25;;;-6.51;64.91
69035;BME280;56091;55.756;37.412;2023-03-01T05:57:11;98264.91;;;-6.44;63.97
69035;BME280;56091;55.756;37.412;2023-03-01T06:02:11;98256.13;;;-6.59;64.39
69035;BME280;56091;55.756;37.412;2023-03-01T06:07:15;98265.31;;;-6.24;63.79
69035;BME280;56091;55.756;37.412;2023-03-01T06:12:15;98246.41;;;-6.51;63.76
69035;BME280;56091;55.756;37.412;2023-03-01T06:17:16;98277.63;;;-6.24;63.36
69035;BME280;56091;55.756;37.412;2023-03-01T06:22:17;98287.25;;;-6.17;62.98
69035;BME280;56091;55.756;37.412;2023-03-01T06:27:19;98283.50;;;-5.91;62.88
69035;BME280;56091;55.756;37.412;2023-03-01T06:32:20;98284.03;;;-5.73;61.78
69035;BME280;56091;55.756;37.412;2023-03-01T06:37:21;98285.72;;;-5.57;61.84
69035;BME280;56091;55.756;37.412;2023-03-01T06:42:22;98295.75;;;-5.37;61.11
69035;BME280;56091;55.756;37.412;2023-03-01T06:47:23;98299.91;;;-5.43;60.89
69035;BME280;56091;55.756;37.412;2023-03-01T06:52:24;98282.00;;;-5.24;60.99
69035;BME280;56091;55.756;37.412;2023-03-01T06:57:24;98289.22;;;-5.03;60.68
69035;BME280;56091;55.756;37.412;2023-03-01T07:02:25;98300.03;;;-4.98;60.91
69035;BME280;56091;55.756;37.412;2023-03-01T07:07:26;98284.28;;;-5.21;61.19
69035;BME280;56091;55.756;37.412;2023-03-01T07:12:27;98307.19;;;-5.30;61.93
69035;BME280;56091;55.756;37.412;2023-03-01T07:17:28;98317.50;;;-5.05;61.79
69035;BME280;56091;55.756;37.412;2023-03-01T07:22:29;98315.88;;;-4.68;61.37
69035;BME280;56091;55.756;37.412;2023-03-01T07:27:30;98311.22;;;-4.66;60.10
69035;BME280;56091;55.756;37.412;2023-03-01T07:32:30;98315.28;;;-4.79;60.90
69035;BME280;56091;55.756;37.412;2023-03-01T07:37:31;98348.88;;;-4.66;60.00
69035;BME280;56091;55.756;37.412;2023-03-01T07:42:32;98343.69;;;-4.89;60.98
69035;BME280;56091;55.756;37.412;2023-03-01T07:47:34;98351.19;;;-4.63;60.39
69035;BME280;56091;55.756;37.412;2023-03-01T07:52:35;98338.88;;;-4.71;60.11
69035;BME280;56091;55.756;37.412;2023-03-01T07:57:35;98350.66;;;-4.28;59.29
69035;BME280;56091;55.756;37.412;2023-03-01T08:02:36;98347.00;;;-4.42;59.27
69035;BME280;56091;55.756;37.412;2023-03-01T08:07:37;98349.91;;;-4.22;59.25
69035;BME280;56091;55.756;37.412;2023-03-01T08:12:38;98344.72;;;-4.16;58.79
69035;BME280;56091;55.756;37.412;2023-03-01T08:17:38;98324.84;;;-4.63;59.75
69035;BME280;56091;55.756;37.412;2023-03-01T08:22:39;98354.72;;;-4.41;60.05
69035;BME280;56091;55.756;37.412;2023-03-01T08:27:40;98346.91;;;-4.34;59.44
69035;BME280;56091;55.756;37.412;2023-03-01T08:32:41;98354.44;;;-4.61;59.73
69035;BME280;56091;55.756;37.412;2023-03-01T08:37:41;98344.91;;;-4.32;59.88
69035;BME280;56091;55.756;37.412;2023-03-01T08:42:43;98364.06;;;-4.08;58.81
69035;BME280;56091;55.756;37.412;2023-03-01T08:47:44;98350.81;;;-4.15;58.36
69035;BME280;56091;55.756;37.412;2023-03-01T08:52:45;98368.19;;;-3.69;58.47
69035;BME280;56091;55.756;37.412;2023-03-01T08:57:48;98401.59;;;-3.55;57.77
69035;BME280;56091;55.756;37.412;2023-03-01T09:02:49;98395.22;;;-3.82;57.84
69035;BME280;56091;55.756;37.412;2023-03-01T09:07:53;98392.47;;;-3.89;58.90
69035;BME280;56091;55.756;37.412;2023-03-01T09:12:54;98386.72;;;-3.63;57.85
69035;BME280;56091;55.756;37.412;2023-03-01T09:17:56;98381.22;;;-3.83;58.91
69035;BME280;56091;55.756;37.412;2023-03-01T09:22:57;98411.59;;;-3.87;59.31
69035;BME280;56091;55.756;37.412;2023-03-01T09:28:01;98380.47;;;-3.77;59.98
69035;BME280;56091;55.756;37.412;2023-03-01T09:33:01;98372.78;;;-3.57;58.95
69035;BME280;56091;55.756;37.412;2023-03-01T09:38:03;98381.03;;;-3.45;58.45
69035;BME280;56091;55.756;37.412;2023-03-01T09:43:14;98386.81;;;-3.71;59.00
69035;BME280;56091;55.756;37.412;2023-03-01T09:48:19;98372.13;;;-3.95;59.06
69035;BME280;56091;55.756;37.412;2023-03-01T09:53:32;98403.19;;;-3.76;58.58
69035;BME280;56091;55.756;37.412;2023-03-01T10:09:20;98408.56;;;-3.33;57.50
69035;BME280;56091;55.756;37.412;2023-03-01T10:14:33;98403.19;;;-3.03;56.51
69035;BME280;56091;55.756;37.412;2023-03-01T10:24:36;98393.72;;;-2.69;55.44
69035;BME280;56091;55.756;37.412;2023-03-01T10:30:05;98395.66;;;-2.56;54.53
69035;BME280;56091;55.756;37.412;2023-03-01T10:35:16;98425.88;;;-2.37;52.57
69035;BME280;56091;55.756;37.412;2023-03-01T10:40:17;98419.19;;;-2.83;53.87
69035;BME280;56091;55.756;37.412;2023-03-01T10:45:35;98405.56;;;-2.86;54.29
69035;BME280;56091;55.756;37.412;2023-03-01T10:50:36;98393.63;;;-3.25;55.62
69035;BME280;56091;55.756;37.412;2023-03-01T10:55:40;98399.78;;;-2.75;54.83
69035;BME280;56091;55.756;37.412;2023-03-01T11:00:53;98390.16;;;-2.55;53.29
69035;BME280;56091;55.756;37.412;2023-03-01T11:11:21;98383.41;;;-2.01;52.10
69035;BME280;56091;55.756;37.412;2023-03-01T11:21:27;98388.06;;;-2.38;52.54
69035;BME280;56091;55.756;37.412;2023-03-01T11:26:34;98404.44;;;-2.99;54.47
69035;BME280;56091;55.756;37.412;2023-03-01T11:31:37;98392.81;;;-3.26;54.10
69035;BME280;56091;55.756;37.412;2023-03-01T11:36:52;98408.63;;;-3.04;51.75
69035;BME280;56091;55.756;37.412;2023-03-01T11:42:10;98409.84;;;-3.07;52.56
69035;BME280;56091;55.756;37.412;2023-03-01T11:52:56;98394.25;;;-2.52;52.96
69035;BME280;56091;55.756;37.412;2023-03-01T12:24:31;98413.00;;;-1.77;50.17
69035;BME280;56091;55.756;37.412;2023-03-01T12:51:19;98415.91;;;-2.85;52.17
69035;BME280;56091;55.756;37.412;2023-03-01T12:56:25;98424.78;;;-2.92;52.37
69035;BME280;56091;55.756;37.412;2023-03-01T13:11:58;98427.69;;;-3.09;54.92
69035;BME280;56091;55.756;37.412;2023-03-01T13:16:59;98435.69;;;-3.17;54.73
69035;BME280;56091;55.756;37.412;2023-03-01T13:22:28;98433.91;;;-3.17;55.20
69035;BME280;56091;55.756;37.412;2023-03-01T13:27:29;98417.66;;;-3.14;54.22
69035;BME280;56091;55.756;37.412;2023-03-01T13:32:31;98411.31;;;-3.19;54.45
69035;BME280;56091;55.756;37.412;2023-03-01T13:37:37;98397.94;;;-3.18;54.53
69035;BME280;56091;55.756;37.412;2023-03-01T13:42:43;98389.28;;;-3.11;54.70
69035;BME280;56091;55.756;37.412;2023-03-01T13:47:52;98400.78;;;-3.19;56.32
69035;BME280;56091;55.756;37.412;2023-03-01T13:53:06;98393.00;;;-3.27;56.59
69035;BME280;56091;55.756;37.412;2023-03-01T14:03:23;98376.75;;;-3.46;56.63
69035;BME280;56091;55.756;37.412;2023-03-01T14:08:26;98404.97;;;-3.46;57.30
69035;BME280;56091;55.756;37.412;2023-03-01T14:19:27;98383.41;;;-3.50;57.03
69035;BME280;56091;55.756;37.412;2023-03-01T14:24:22;98372.84;;;-3.71;57.58
69035;BME280;56091;55.756;37.412;2023-03-01T14:29:43;98360.59;;;-3.79;57.82
69035;BME280;56091;55.756;37.412;2023-03-01T14:34:49;98364.09;;;-3.72;58.22
69035;BME280;56091;55.756;37.412;2023-03-01T14:39:51;98363.69;;;-3.90;58.85
69035;BME280;56091;55.756;37.412;2023-03-01T14:44:54;98339.59;;;-4.02;59.30
69035;BME280;56091;55.756;37.412;2023-03-01T14:55:16;98345.34;;;-3.99;59.81
69035;BME280;56091;55.756;37.412;2023-03-01T15:00:22;98380.66;;;-3.93;61.55
69035;BME280;56091;55.756;37.412;2023-03-01T15:05:31;98368.06;;;-3.98;62.96
69035;BME280;56091;55.756;37.412;2023-03-01T15:10:35;98360.88;;;-4.04;63.67
69035;BME280;56091;55.756;37.412;2023-03-01T15:15:44;98358.63;;;-4.07;63.75
69035;BME280;56091;55.756;37.412;2023-03-01T15:20:49;98290.44;;;-4.46;62.64
69035;BME280;56091;55.756;37.412;2023-03-01T15:25:52;98342.91;;;-4.15;62.62
69035;BME280;56091;55.756;37.412;2023-03-01T15:36:39;98356.88;;;-4.00;60.58
69035;BME280;56091;55.756;37.412;2023-03-01T15:41:47;98337.25;;;-3.97;59.87
69035;BME280;56091;55.756;37.412;2023-03-01T15:46:49;98339.25;;;-3.99;59.45
69035;BME280;56091;55.756;37.412;2023-03-01T15:51:49;98355.97;;;-3.92;58.74
69035;BME280;56091;55.756;37.412;2023-03-01T15:56:52;98375.78;;;-3.96;58.58
69035;BME280;56091;55.756;37.412;2023-03-01T16:01:53;98348.53;;;-4.03;58.55
69035;BME280;56091;55.756;37.412;2023-03-01T16:06:54;98356.44;;;-4.03;58.88
69035;BME280;56091;55.756;37.412;2023-03-01T16:11:55;98361.06;;;-4.05;59.30
69035;BME280;56091;55.756;37.412;2023-03-01T16:16:56;98364.78;;;-4.00;60.45
69035;BME280;56091;55.756;37.412;2023-03-01T16:22:00;98358.50;;;-4.14;61.96
69035;BME280;56091;55.756;37.412;2023-03-01T16:27:00;98344.19;;;-4.11;62.34
69035;BME280;56091;55.756;37.412;2023-03-01T16:32:01;98348.06;;;-4.07;61.64
69035;BME280;56091;55.756;37.412;2023-03-01T16:37:02;98340.53;;;-4.10;61.45
69035;BME280;56091;55.756;37.412;2023-03-01T16:42:05;98339.81;;;-4.04;61.36
69035;BME280;56091;55.756;37.412;2023-03-01T16:47:06;98329.53;;;-3.99;61.35
69035;BME280;56091;55.756;37.412;2023-03-01T16:52:09;98334.44;;;-3.96;61.54
69035;BME280;56091;55.756;37.412;2023-03-01T16:57:11;98323.56;;;-4.07;61.15
69035;BME280;56091;55.756;37.412;2023-03-01T17:02:13;98324.00;;;-4.04;61.27
69035;BME280;56091;55.756;37.412;2023-03-01T17:07:15;98330.06;;;-3.88;61.17
69035;BME280;56091;55.756;37.412;2023-03-01T17:12:15;98317.06;;;-3.90;60.60
69035;BME280;56091;55.756;37.412;2023-03-01T17:17:16;98327.97;;;-3.93;60.63
69035;BME280;56091;55.756;37.412;2023-03-01T17:22:17;98318.44;;;-3.94;60.82
69035;BME280;56091;55.756;37.412;2023-03-01T17:27:18;98318.63;;;-3.96;61.41
69035;BME280;56091;55.756;37.412;2023-03-01T17:32:19;98291.97;;;-4.22;62.61
69035;BME280;56091;55.756;37.412;2023-03-01T17:37:20;98319.09;;;-4.07;63.47
69035;BME280;56091;55.756;37.412;2023-03-01T17:42:20;98304.09;;;-4.06;64.12
69035;BME280;56091;55.756;37.412;2023-03-01T17:47:21;98315.25;;;-4.04;64.54
69035;BME280;56091;55.756;37.412;2023-03-01T17:52:22;98302.09;;;-4.04;64.81
69035;BME280;56091;55.756;37.412;2023-03-01T17:57:23;98313.38;;;-4.10;64.97
69035;BME280;56091;55.756;37.412;2023-03-01T18:02:24;98295.75;;;-4.10;65.15
69035;BME280;56091;55.756;37.412;2023-03-01T18:07:28;98288.22;;;-4.13;65.46
69035;BME280;56091;55.756;37.412;2023-03-01T18:12:32;98288.47;;;-4.08;65.18
69035;BME280;56091;55.756;37.412;2023-03-01T18:17:33;98302.94;;;-4.04;65.07
69035;BME280;56091;55.756;37.412;2023-03-01T18:22:33;98272.78;;;-4.16;65.29
69035;BME280;56091;55.756;37.412;2023-03-01T18:27:34;98277.06;;;-4.15;65.60
69035;BME280;56091;55.756;37.412;2023-03-01T18:32:36;98284.50;;;-4.04;65.41
69035;BME280;56091;55.756;37.412;2023-03-01T18:37:39;98266.38;;;-4.28;66.03
69035;BME280;56091;55.756;37.412;2023-03-01T18:42:39;98285.59;;;-4.13;66.29
69035;BME280;56091;55.756;37.412;2023-03-01T18:47:40;98273.22;;;-4.13;66.17
69035;BME280;56091;55.756;37.412;2023-03-01T18:52:43;98270.16;;;-4.16;66.34
69035;BME280;56091;55.756;37.412;2023-03-01T18:57:44;98273.81;;;-4.17;66.25
69035;BME280;56091;55.756;37.412;2023-03-01T19:02:45;98278.84;;;-4.16;66.40
69035;BME280;56091;55.756;37.412;2023-03-01T19:07:46;98271.34;;;-4.19;66.55
69035;BME280;56091;55.756;37.412;2023-03-01T19:12:47;98271.34;;;-4.19;66.55
69035;BME280;56091;55.756;37.412;2023-03-01T19:17:48;98251.81;;;-4.24;66.61
69035;BME280;56091;55.756;37.412;2023-03-01T19:22:49;98253.97;;;-4.13;66.68
69035;BME280;56091;55.756;37.412;2023-03-01T19:27:51;98254.16;;;-4.15;67.07
69035;BME280;56091;55.756;37.412;2023-03-01T19:32:53;98242.19;;;-4.17;67.04
69035;BME280;56091;55.756;37.412;2023-03-01T19:37:53;98218.22;;;-4.22;67.26
69035;BME280;56091;55.756;37.412;2023-03-01T19:42:55;98229.19;;;-4.19;67.43
69035;BME280;56091;55.756;37.412;2023-03-01T19:47:56;98228.00;;;-4.16;67.58
69035;BME280;56091;55.756;37.412;2023-03-01T19:52:57;98231.75;;;-4.25;67.98
69035;BME280;56091;55.756;37.412;2023-03-01T19:57:58;98229.56;;;-4.22;68.49
69035;BME280;56091;55.756;37.412;2023-03-01T20:02:59;98233.22;;;-4.23;69.34
69035;BME280;56091;55.756;37.412;2023-03-01T20:08:00;98235.47;;;-4.20;70.43
69035;BME280;56091;55.756;37.412;2023-03-01T20:13:01;98235.94;;;-4.31;72.04
69035;BME280;56091;55.756;37.412;2023-03-01T20:18:03;98232.59;;;-4.25;73.36
69035;BME280;56091;55.756;37.412;2023-03-01T20:23:04;98223.34;;;-4.36;75.31
69035;BME280;56091;55.756;37.412;2023-03-01T20:28:05;98213.44;;;-4.48;76.71
69035;BME280;56091;55.756;37.412;2023-03-01T20:33:08;98206.06;;;-4.38;77.65
69035;BME280;56091;55.756;37.412;2023-03-01T20:38:09;98198.91;;;-4.44;78.15
69035;BME280;56091;55.756;37.412;2023-03-01T20:43:10;98204.94;;;-4.51;78.90
69035;BME280;56091;55.756;37.412;2023-03-01T20:48:11;98209.66;;;-4.61;79.47
69035;BME280;56091;55.756;37.412;2023-03-01T20:53:13;98205.13;;;-4.67;80.54
69035;BME280;56091;55.756;37.412;2023-03-01T20:58:14;98182.00;;;-4.86;80.96
69035;BME280;56091;55.756;37.412;2023-03-01T21:03:15;98193.78;;;-4.82;81.43
69035;BME280;56091;55.756;37.412;2023-03-01T21:08:15;98197.44;;;-4.83;81.38
69035;BME280;56091;55.756;37.412;2023-03-01T21:13:18;98205.78;;;-4.80;81.36
69035;BME280;56091;55.756;37.412;2023-03-01T21:18:20;98212.50;;;-4.77;81.27
69035;BME280;56091;55.756;37.412;2023-03-01T21:23:28;98217.91;;;-4.64;81.11
69035;BME280;56091;55.756;37.412;2023-03-01T21:28:31;98206.84;;;-4.59;80.39
69035;BME280;56091;55.756;37.412;2023-03-01T21:33:34;98198.13;;;-4.60;79.96
69035;BME280;56091;55.756;37.412;2023-03-01T21:38:38;98190.41;;;-4.61;79.64
69035;BME280;56091;55.756;37.412;2023-03-01T21:43:40;98196.22;;;-4.51;79.39
69035;BME280;56091;55.756;37.412;2023-03-01T21:48:42;98194.31;;;-4.57;79.21
69035;BME280;56091;55.756;37.412;2023-03-01T21:53:44;98200.00;;;-4.54;79.34
69035;BME280;56091;55.756;37.412;2023-03-01T21:58:45;98198.75;;;-4.58;79.25
69035;BME280;56091;55.756;37.412;2023-03-01T22:03:49;98209.66;;;-4.61;79.20
69035;BME280;56091;55.756;37.412;2023-03-01T22:08:55;98213.66;;;-4.65;79.42
69035;BME280;56091;55.756;37.412;2023-03-01T22:13:56;98208.03;;;-4.62;79.44
69035;BME280;56091;55.756;37.412;2023-03-01T22:18:58;98194.59;;;-4.67;79.58
69035;BME280;56091;55.756;37.412;2023-03-01T22:23:59;98206.59;;;-4.64;79.57
69035;BME280;56091;55.756;37.412;2023-03-01T22:29:01;98206.41;;;-4.63;79.77
69035;BME280;56091;55.756;37.412;2023-03-01T22:34:03;98214.84;;;-4.67;80.15
69035;BME280;56091;55.756;37.412;2023-03-01T22:39:04;98199.16;;;-4.91;80.13
69035;BME280;56091;55.756;37.412;2023-03-01T22:44:05;98224.09;;;-4.72;80.31
69035;BME280;56091;55.756;37.412;2023-03-01T22:49:06;98204.69;;;-4.85;80.33
69035;BME280;56091;55.756;37.412;2023-03-01T22:54:08;98218.66;;;-4.70;80.07
69035;BME280;56091;55.756;37.412;2023-03-01T22:59:12;98231.72;;;-4.77;80.23
69035;BME280;56091;55.756;37.412;2023-03-01T23:04:13;98213.41;;;-4.70;80.11
69035;BME280;56091;55.756;37.412;2023-03-01T23:09:13;98229.44;;;-4.65;80.05
69035;BME280;56091;55.756;37.412;2023-03-01T23:14:14;98215.66;;;-4.82;80.20
69035;BME280;56091;55.756;37.412;2023-03-01T23:19:16;98250.94;;;-4.61;80.10
69035;BME280;56091;55.756;37.412;2023-03-01T23:24:18;98231.91;;;-4.63;79.90
69035;BME280;56091;55.756;37.412;2023-03-01T23:29:19;98233.09;;;-4.66;80.14
69035;BME280;56091;55.756;37.412;2023-03-01T23:34:21;98248.88;;;-4.66;80.37
69035;BME280;56091;55.756;37.412;2023-03-01T23:39:21;98245.50;;;-4.60;80.28
69035;BME280;56091;55.756;37.412;2023-03-01T23:44:22;98232.34;;;-4.60;80.06
69035;BME280;56091;55.756;37.412;2023-03-01T23:49:23;98240.88;;;-4.58;79.84
69035;BME280;56091;55.756;37.412;2023-03-01T23:54:24;98244.69;;;-4.60;80.15
69035;BME280;56091;55.756;37.412;2023-03-01T23:59:25;98233.19;;;-4.74;80.36
